Time;durP1;ratioP1;P1;durP2;ratioP2;P2;SDS_P1;SDS_P2;PMS_P1;PMS_P2;Temp;Humidity;BMP_temperature;BMP_pressure;BME280_temperature;BME280_humidity;BME280_pressure;Samples;Min_cycle;Max_cycle;Signal;HPM_P1;HPM_P2
2023/07/26 00:00:45;;;;;;;2.60;2.40;;;;;;;;;;5051499;28;20433;-46
2023/07/26 00:03:11;;;;;;;6.80;2.40;;;;;;;;;;5051798;28;20413;-48
2023/07/26 00:05:37;;;;;;;6.07;2.50;;;;;;;;;;5051726;28;20680;-44
2023/07/26 00:08:03;;;;;;;2.80;2.60;;;;;;;;;;5051619;28;20459;-44
2023/07/26 00:10:29;;;;;;;2.57;2.10;;;;;;;;;;5051155;28;20437;-44
2023/07/26 00:12:55;;;;;;;3.77;3.30;;;;;;;;;;5050423;28;20418;-45
2023/07/26 00:15:21;;;;;;;6.80;2.50;;;;;;;;;;5051601;28;20420;-44
2023/07/26 00:17:47;;;;;;;3.93;2.63;;;;;;;;;;5047336;28;20455;-45
2023/07/26 00:20:13;;;;;;;2.87;2.67;;;;;;;;;;5050512;28;20510;-45
2023/07/26 00:22:38;;;;;;;7.33;2.20;;;;;;;;;;5051547;28;20421;-48
2023/07/26 00:25:05;;;;;;;5.63;2.70;;;;;;;;;;5051222;28;20448;-44
2023/07/26 00:27:31;;;;;;;3.80;2.47;;;;;;;;;;5050444;28;20411;-44
2023/07/26 00:29:56;;;;;;;3.53;2.30;;;;;;;;;;5051102;28;20543;-44
2023/07/26 00:32:22;;;;;;;6.80;2.27;;;;;;;;;;5051431;28;20453;-44
2023/07/26 00:34:48;;;;;;;6.40;2.50;;;;;;;;;;5051396;28;20414;-44
2023/07/26 00:37:14;;;;;;;3.70;2.30;;;;;;;;;;5051412;28;20879;-45
2023/07/26 00:39:40;;;;;;;6.40;2.77;;;;;;;;;;5050480;28;20467;-45
2023/07/26 00:42:06;;;;;;;6.40;2.63;;;;;;;;;;5051377;28;20916;-48
2023/07/26 00:44:32;;;;;;;4.33;2.20;;;;;;;;;;5051185;28;20432;-48
2023/07/26 00:46:58;;;;;;;3.00;2.50;;;;;;;;;;5051489;28;21197;-43
2023/07/26 00:49:24;;;;;;;3.07;2.77;;;;;;;;;;5050940;28;20488;-44
2023/07/26 00:51:50;;;;;;;3.70;2.97;;;;;;;;;;5043617;28;20417;-44
2023/07/26 00:54:19;;;;;;;3.20;2.90;;;;;;;;;;5050062;28;20902;-44
2023/07/26 00:56:45;;;;;;;3.03;2.30;;;;;;;;;;5048656;28;20405;-45
2023/07/26 00:59:12;;;;;;;4.07;2.60;;;;;;;;;;5051125;28;20829;-44
2023/07/26 01:01:39;;;;;;;3.10;2.43;;;;;;;;;;5045474;28;20438;-48
2023/07/26 01:04:05;;;;;;;2.83;2.63;;;;;;;;;;5047824;28;20409;-44
2023/07/26 01:06:37;;;;;;;4.30;3.10;;;;;;;;;;5050800;28;20408;-44
2023/07/26 01:09:08;;;;;;;2.93;2.73;;;;;;;;;;5048062;28;20468;-47
2023/07/26 01:11:34;;;;;;;5.03;3.00;;;;;;;;;;5046524;28;20446;-45
2023/07/26 01:14:06;;;;;;;5.10;3.73;;;;;;;;;;5051024;28;20408;-45
2023/07/26 01:16:32;;;;;;;4.00;3.60;;;;;;;;;;5051150;28;20514;-45
2023/07/26 01:18:58;;;;;;;4.03;2.87;;;;;;;;;;5049879;28;20457;-46
2023/07/26 01:21:24;;;;;;;6.20;4.27;;;;;;;;;;5047935;28;20764;-47
2023/07/26 01:23:50;;;;;;;6.80;2.83;;;;;;;;;;5050972;28;20413;-44
2023/07/26 01:26:16;;;;;;;4.40;3.20;;;;;;;;;;5050962;28;20412;-44
2023/07/26 01:28:42;;;;;;;5.30;3.40;;;;;;;;;;5050713;28;20501;-47
2023/07/26 01:31:09;;;;;;;6.80;3.13;;;;;;;;;;5052544;28;20419;-45
2023/07/26 01:33:35;;;;;;;4.23;3.30;;;;;;;;;;5053470;28;20421;-49
2023/07/26 01:36:02;;;;;;;4.20;2.87;;;;;;;;;;5054507;28;20932;-45
2023/07/26 01:38:29;;;;;;;3.30;3.10;;;;;;;;;;5054731;28;20416;-45
2023/07/26 01:40:55;;;;;;;6.27;3.80;;;;;;;;;;5054788;28;20432;-51
2023/07/26 01:43:21;;;;;;;4.47;2.93;;;;;;;;;;5054400;28;20495;-49
2023/07/26 01:45:47;;;;;;;3.20;2.97;;;;;;;;;;5054518;28;21119;-50
2023/07/26 01:48:13;;;;;;;3.93;3.07;;;;;;;;;;5053281;28;20483;-48
2023/07/26 01:50:39;;;;;;;3.13;2.83;;;;;;;;;;5053925;28;20795;-51
2023/07/26 01:53:05;;;;;;;5.23;3.63;;;;;;;;;;5054225;28;20780;-50
2023/07/26 01:55:31;;;;;;;4.57;3.53;;;;;;;;;;5048271;28;20851;-51
2023/07/26 01:57:57;;;;;;;8.40;3.87;;;;;;;;;;5048991;28;20500;-51
2023/07/26 02:00:23;;;;;;;10.37;3.90;;;;;;;;;;5050889;28;20416;-50
2023/07/26 02:02:49;;;;;;;3.50;3.20;;;;;;;;;;5054190;28;20441;-51
2023/07/26 02:05:16;;;;;;;8.67;3.53;;;;;;;;;;5053900;28;20453;-50
2023/07/26 02:07:42;;;;;;;4.23;3.47;;;;;;;;;;5053940;28;20416;-50
2023/07/26 02:10:09;;;;;;;5.33;3.43;;;;;;;;;;5047830;28;20471;-50
2023/07/26 02:12:35;;;;;;;4.63;3.10;;;;;;;;;;5054069;28;20431;-51
2023/07/26 02:15:01;;;;;;;5.63;3.83;;;;;;;;;;5053005;28;20905;-50
2023/07/26 02:17:27;;;;;;;7.00;3.80;;;;;;;;;;5053624;28;20777;-49
2023/07/26 02:19:52;;;;;;;8.10;4.03;;;;;;;;;;5053364;28;20431;-48
2023/07/26 02:22:18;;;;;;;8.90;3.17;;;;;;;;;;5053701;28;20401;-51
2023/07/26 02:24:44;;;;;;;4.73;3.67;;;;;;;;;;5053469;28;20499;-50
2023/07/26 02:27:10;;;;;;;7.43;3.80;;;;;;;;;;5053482;28;20467;-50
2023/07/26 02:29:36;;;;;;;3.90;3.13;;;;;;;;;;5052636;28;20471;-48
2023/07/26 02:32:02;;;;;;;6.70;3.50;;;;;;;;;;5053423;28;20409;-49
2023/07/26 02:34:28;;;;;;;7.00;3.40;;;;;;;;;;5053306;28;20428;-48
2023/07/26 02:36:54;;;;;;;8.47;3.70;;;;;;;;;;5053417;28;20473;-48
2023/07/26 02:39:20;;;;;;;6.60;3.90;;;;;;;;;;5053290;28;20483;-48
2023/07/26 02:41:46;;;;;;;6.00;3.63;;;;;;;;;;5045386;28;20860;-51
2023/07/26 02:44:12;;;;;;;3.27;2.97;;;;;;;;;;5052426;28;20408;-52
2023/07/26 02:46:38;;;;;;;3.87;3.50;;;;;;;;;;5053180;28;20435;-50
2023/07/26 02:49:04;;;;;;;4.77;4.33;;;;;;;;;;5052980;28;20475;-50
2023/07/26 02:51:30;;;;;;;4.50;4.10;;;;;;;;;;5052901;28;20450;-51
2023/07/26 02:53:56;;;;;;;5.40;3.80;;;;;;;;;;5053033;28;20408;-49
2023/07/26 02:56:22;;;;;;;3.63;3.43;;;;;;;;;;5052339;28;20397;-48
2023/07/26 02:58:48;;;;;;;4.47;3.90;;;;;;;;;;5053043;28;20463;-51
2023/07/26 03:01:14;;;;;;;7.10;3.53;;;;;;;;;;5052651;28;20405;-51
2023/07/26 03:03:42;;;;;;;9.80;3.90;;;;;;;;;;5052917;28;20408;-50
2023/07/26 03:06:08;;;;;;;7.33;4.43;;;;;;;;;;5052876;28;20407;-51
2023/07/26 03:08:34;;;;;;;5.97;4.23;;;;;;;;;;5052595;28;20457;-47
2023/07/26 03:11:00;;;;;;;8.73;4.23;;;;;;;;;;5052140;28;20412;-50
2023/07/26 03:13:26;;;;;;;6.23;4.10;;;;;;;;;;5052761;28;20404;-51
2023/07/26 03:15:53;;;;;;;4.83;4.10;;;;;;;;;;5052705;28;20433;-50
2023/07/26 03:18:19;;;;;;;5.77;5.17;;;;;;;;;;5051135;28;20455;-51
2023/07/26 03:20:46;;;;;;;7.47;4.87;;;;;;;;;;5052252;28;20439;-50
2023/07/26 03:23:13;;;;;;;4.73;4.43;;;;;;;;;;5047585;28;20412;-50
2023/07/26 03:25:39;;;;;;;5.30;4.80;;;;;;;;;;5044303;28;20763;-51
2023/07/26 03:28:05;;;;;;;7.90;4.80;;;;;;;;;;5052371;28;20579;-50
2023/07/26 03:30:31;;;;;;;5.80;4.67;;;;;;;;;;5050538;28;20440;-50
2023/07/26 03:32:57;;;;;;;4.33;3.93;;;;;;;;;;5052407;28;20407;-48
2023/07/26 03:35:23;;;;;;;4.40;4.00;;;;;;;;;;5052238;28;20444;-51
2023/07/26 03:37:49;;;;;;;4.70;3.80;;;;;;;;;;5052299;28;20410;-51
2023/07/26 03:40:15;;;;;;;4.73;3.97;;;;;;;;;;5051748;28;20531;-50
2023/07/26 03:42:41;;;;;;;4.57;4.20;;;;;;;;;;5052296;28;20421;-50
2023/07/26 03:45:07;;;;;;;9.33;5.90;;;;;;;;;;5050712;28;20423;-51
2023/07/26 03:47:33;;;;;;;7.47;6.67;;;;;;;;;;5052098;28;20416;-50
2023/07/26 03:50:02;;;;;;;9.70;6.10;;;;;;;;;;5051604;28;20482;-49
2023/07/26 03:52:28;;;;;;;10.37;6.50;;;;;;;;;;5051944;28;20408;-48
2023/07/26 03:54:54;;;;;;;6.63;6.03;;;;;;;;;;5051353;28;20420;-49
2023/07/26 03:57:21;;;;;;;8.00;6.77;;;;;;;;;;5044038;28;20572;-51
2023/07/26 03:59:49;;;;;;;7.50;6.70;;;;;;;;;;5050376;28;20442;-50
2023/07/26 04:02:15;;;;;;;12.70;6.67;;;;;;;;;;5051833;28;20407;-48
2023/07/26 04:04:41;;;;;;;12.73;6.73;;;;;;;;;;5051414;28;20427;-50
2023/07/26 04:07:07;;;;;;;6.63;6.00;;;;;;;;;;5051804;28;20938;-50
2023/07/26 04:09:33;;;;;;;7.97;6.47;;;;;;;;;;5051670;28;20486;-49
2023/07/26 04:11:59;;;;;;;6.87;6.27;;;;;;;;;;5051596;28;20404;-49
2023/07/26 04:14:25;;;;;;;8.07;6.30;;;;;;;;;;5050375;28;20419;-48
2023/07/26 04:16:52;;;;;;;8.73;6.07;;;;;;;;;;5051663;28;20440;-47
2023/07/26 04:19:18;;;;;;;8.10;6.40;;;;;;;;;;5051480;28;20473;-48
2023/07/26 04:21:44;;;;;;;8.30;6.43;;;;;;;;;;5051293;28;20842;-48
2023/07/26 04:24:11;;;;;;;8.70;6.57;;;;;;;;;;5051503;28;20423;-49
2023/07/26 04:26:37;;;;;;;7.63;7.00;;;;;;;;;;5050389;28;20784;-51
2023/07/26 04:29:03;;;;;;;7.10;6.40;;;;;;;;;;5050109;28;21043;-50
2023/07/26 04:31:30;;;;;;;8.97;6.90;;;;;;;;;;5050148;28;20912;-51
2023/07/26 04:33:56;;;;;;;10.00;6.30;;;;;;;;;;5051319;28;20413;-51
2023/07/26 04:36:22;;;;;;;8.73;6.43;;;;;;;;;;5051569;28;20480;-50
2023/07/26 04:38:48;;;;;;;13.70;7.90;;;;;;;;;;5051365;28;20506;-50
2023/07/26 04:41:15;;;;;;;8.60;7.20;;;;;;;;;;5050081;28;20412;-48
2023/07/26 04:43:42;;;;;;;8.30;7.40;;;;;;;;;;5051339;28;20460;-50
2023/07/26 04:46:08;;;;;;;7.70;6.40;;;;;;;;;;5051550;28;20444;-51
2023/07/26 04:48:34;;;;;;;9.90;6.23;;;;;;;;;;5051066;28;20502;-49
2023/07/26 04:51:00;;;;;;;7.30;6.40;;;;;;;;;;5051190;28;20420;-50
2023/07/26 04:53:26;;;;;;;8.13;7.17;;;;;;;;;;5051377;28;20500;-50
2023/07/26 04:55:52;;;;;;;8.43;6.97;;;;;;;;;;5050316;28;20423;-50
2023/07/26 04:58:18;;;;;;;8.87;7.57;;;;;;;;;;5048618;28;20415;-49
2023/07/26 05:00:44;;;;;;;15.23;7.87;;;;;;;;;;5051510;28;20436;-49
2023/07/26 05:03:11;;;;;;;7.83;7.00;;;;;;;;;;5051197;28;20550;-51
2023/07/26 05:05:37;;;;;;;7.20;6.30;;;;;;;;;;5052243;28;20431;-48
2023/07/26 05:08:03;;;;;;;7.87;7.07;;;;;;;;;;5055002;28;20972;-49
2023/07/26 05:10:30;;;;;;;7.70;6.70;;;;;;;;;;5053666;28;20929;-48
2023/07/26 05:12:56;;;;;;;11.00;8.03;;;;;;;;;;5055078;28;20420;-49
2023/07/26 05:15:22;;;;;;;11.37;8.73;;;;;;;;;;5054713;28;20413;-51
2023/07/26 05:17:50;;;;;;;8.30;7.37;;;;;;;;;;5054982;28;20434;-51
2023/07/26 05:20:16;;;;;;;12.30;6.37;;;;;;;;;;5054520;28;20437;-51
2023/07/26 05:22:42;;;;;;;6.40;5.80;;;;;;;;;;5053915;28;20916;-50
2023/07/26 05:25:08;;;;;;;6.67;6.03;;;;;;;;;;5054761;28;20408;-51
2023/07/26 05:27:34;;;;;;;7.73;6.93;;;;;;;;;;5054685;28;20413;-50
2023/07/26 05:30:00;;;;;;;8.80;7.10;;;;;;;;;;5054312;28;20566;-51
2023/07/26 05:32:26;;;;;;;9.17;7.27;;;;;;;;;;5054646;28;20898;-51
2023/07/26 05:34:54;;;;;;;11.57;7.47;;;;;;;;;;5054216;28;20406;-51
2023/07/26 05:37:20;;;;;;;7.70;6.20;;;;;;;;;;5053076;28;20943;-50
2023/07/26 05:39:54;;;;;;;6.33;5.40;;;;;;;;;;5051287;28;20917;-49
2023/07/26 05:42:20;;;;;;;9.57;5.33;;;;;;;;;;5053841;28;20427;-49
2023/07/26 05:44:47;;;;;;;8.73;4.77;;;;;;;;;;5054084;28;20404;-51
2023/07/26 05:47:14;;;;;;;5.30;4.80;;;;;;;;;;5054226;28;20547;-49
2023/07/26 05:49:43;;;;;;;10.80;5.03;;;;;;;;;;5053004;28;20968;-50
2023/07/26 05:52:10;;;;;;;5.03;4.53;;;;;;;;;;5052971;28;20881;-51
2023/07/26 05:54:36;;;;;;;7.20;4.60;;;;;;;;;;5054279;28;20492;-49
2023/07/26 05:57:02;;;;;;;5.43;4.97;;;;;;;;;;5049961;28;20433;-50
2023/07/26 05:59:28;;;;;;;4.57;4.17;;;;;;;;;;5054001;28;20511;-49
2023/07/26 06:01:54;;;;;;;6.00;4.50;;;;;;;;;;5053963;28;20410;-48
2023/07/26 06:04:20;;;;;;;6.70;4.77;;;;;;;;;;5052760;28;20444;-50
2023/07/26 06:06:46;;;;;;;4.50;4.10;;;;;;;;;;5053752;28;20498;-48
2023/07/26 06:09:12;;;;;;;4.90;4.50;;;;;;;;;;5053785;28;20469;-51
2023/07/26 06:11:39;;;;;;;5.57;5.13;;;;;;;;;;5049775;28;20596;-50
2023/07/26 06:14:05;;;;;;;5.77;5.00;;;;;;;;;;5053834;28;20460;-50
2023/07/26 06:16:31;;;;;;;5.10;4.53;;;;;;;;;;5053095;28;20416;-51
2023/07/26 06:18:57;;;;;;;11.17;4.77;;;;;;;;;;5052448;28;20482;-50
2023/07/26 06:21:24;;;;;;;6.53;5.53;;;;;;;;;;5051229;28;20912;-47
2023/07/26 06:23:51;;;;;;;7.50;5.70;;;;;;;;;;5051452;28;20774;-49
2023/07/26 06:26:18;;;;;;;5.03;4.60;;;;;;;;;;5053860;28;20412;-51
2023/07/26 06:28:44;;;;;;;8.77;4.97;;;;;;;;;;5047787;28;20752;-52
2023/07/26 06:31:12;;;;;;;6.87;4.53;;;;;;;;;;5053381;28;20923;-50
2023/07/26 06:33:37;;;;;;;5.73;5.13;;;;;;;;;;5052659;28;20413;-50
2023/07/26 06:36:03;;;;;;;6.03;5.40;;;;;;;;;;5053539;28;20417;-49
2023/07/26 06:38:29;;;;;;;5.97;5.40;;;;;;;;;;5048473;28;20418;-49
2023/07/26 06:40:55;;;;;;;5.77;5.17;;;;;;;;;;5053249;28;20801;-51
2023/07/26 06:43:22;;;;;;;5.90;5.10;;;;;;;;;;5053389;28;20456;-48
2023/07/26 06:45:50;;;;;;;6.13;5.50;;;;;;;;;;5053418;28;20421;-49
2023/07/26 06:48:16;;;;;;;6.20;5.20;;;;;;;;;;5052399;28;20904;-50
2023/07/26 06:50:42;;;;;;;7.77;6.20;;;;;;;;;;5052480;28;20539;-51
2023/07/26 06:53:09;;;;;;;6.00;5.40;;;;;;;;;;5053254;28;20485;-48
2023/07/26 06:55:36;;;;;;;8.10;6.70;;;;;;;;;;5047531;28;20405;-51
2023/07/26 06:58:02;;;;;;;6.90;6.30;;;;;;;;;;5053148;28;20443;-51
2023/07/26 07:00:28;;;;;;;7.33;6.60;;;;;;;;;;5052208;28;20439;-51
2023/07/26 07:02:57;;;;;;;7.47;6.77;;;;;;;;;;5051414;28;20500;-50
2023/07/26 07:05:23;;;;;;;6.93;6.30;;;;;;;;;;5050771;28;20386;-48
2023/07/26 07:07:49;;;;;;;7.97;5.90;;;;;;;;;;5053190;28;20439;-48
2023/07/26 07:10:15;;;;;;;6.93;6.33;;;;;;;;;;5052460;28;20794;-50
2023/07/26 07:12:41;;;;;;;7.33;6.30;;;;;;;;;;5052832;28;20520;-51
2023/07/26 07:15:08;;;;;;;9.53;6.63;;;;;;;;;;5050837;28;20486;-49
2023/07/26 07:17:34;;;;;;;9.50;7.00;;;;;;;;;;5052640;28;20437;-50
2023/07/26 07:20:00;;;;;;;12.67;6.97;;;;;;;;;;5052338;28;20480;-48
2023/07/26 07:22:27;;;;;;;9.47;7.33;;;;;;;;;;5052578;28;20437;-48
2023/07/26 07:24:53;;;;;;;10.30;7.83;;;;;;;;;;5052864;28;20413;-48
2023/07/26 07:27:21;;;;;;;8.47;7.37;;;;;;;;;;5052437;28;20926;-51
2023/07/26 07:29:47;;;;;;;10.00;8.57;;;;;;;;;;5051076;28;20995;-50
2023/07/26 07:32:13;;;;;;;17.93;8.40;;;;;;;;;;5052455;28;20492;-51
2023/07/26 07:34:39;;;;;;;14.90;10.53;;;;;;;;;;5052322;28;20433;-51
2023/07/26 07:37:05;;;;;;;12.83;9.87;;;;;;;;;;5048093;28;20421;-50
2023/07/26 07:39:32;;;;;;;14.40;11.17;;;;;;;;;;5051182;28;20911;-51
2023/07/26 07:41:58;;;;;;;15.67;12.27;;;;;;;;;;5052756;28;20447;-50
2023/07/26 07:44:24;;;;;;;14.73;13.07;;;;;;;;;;5047926;28;20476;-51
2023/07/26 07:46:50;;;;;;;17.50;12.07;;;;;;;;;;5046983;28;20420;-51
2023/07/26 07:49:16;;;;;;;13.97;11.90;;;;;;;;;;5051708;28;20468;-49
2023/07/26 07:51:42;;;;;;;13.03;10.93;;;;;;;;;;5049552;28;20411;-49
2023/07/26 07:54:08;;;;;;;14.30;11.77;;;;;;;;;;5046398;28;20448;-50
2023/07/26 07:56:34;;;;;;;15.03;10.07;;;;;;;;;;5044604;28;20442;-50
2023/07/26 07:59:00;;;;;;;19.23;11.53;;;;;;;;;;5050866;28;20449;-48
2023/07/26 08:01:26;;;;;;;12.50;10.70;;;;;;;;;;5051765;28;20413;-49
2023/07/26 08:03:52;;;;;;;10.87;9.73;;;;;;;;;;5050560;28;20406;-51
2023/07/26 08:06:18;;;;;;;16.67;10.40;;;;;;;;;;5049060;28;20402;-50
2023/07/26 08:08:44;;;;;;;13.20;11.23;;;;;;;;;;5048518;28;20452;-51
2023/07/26 08:11:10;;;;;;;13.87;10.03;;;;;;;;;;5046432;28;20419;-50
2023/07/26 08:13:36;;;;;;;11.47;10.27;;;;;;;;;;5050639;28;20773;-48
2023/07/26 08:16:02;;;;;;;11.77;10.40;;;;;;;;;;5051024;28;20433;-50
2023/07/26 08:18:28;;;;;;;19.20;10.57;;;;;;;;;;5050009;28;20909;-50
2023/07/26 08:20:54;;;;;;;13.23;9.40;;;;;;;;;;5049829;28;20436;-50
2023/07/26 08:23:21;;;;;;;9.87;8.23;;;;;;;;;;5050073;28;20646;-49
2023/07/26 08:25:47;;;;;;;11.23;8.83;;;;;;;;;;5051033;28;20373;-50
2023/07/26 08:28:15;;;;;;;12.43;8.03;;;;;;;;;;5049032;28;20900;-49
2023/07/26 08:30:41;;;;;;;10.60;8.10;;;;;;;;;;5051287;28;20440;-49
2023/07/26 08:33:07;;;;;;;10.57;9.50;;;;;;;;;;5051456;28;20454;-50
2023/07/26 08:35:33;;;;;;;19.43;8.87;;;;;;;;;;5051441;28;20425;-50
2023/07/26 08:37:59;;;;;;;9.70;8.23;;;;;;;;;;5051774;28;21100;-51
2023/07/26 08:40:26;;;;;;;9.53;8.20;;;;;;;;;;5051978;28;20566;-50
2023/07/26 08:42:52;;;;;;;9.10;7.70;;;;;;;;;;5055483;28;20410;-50
2023/07/26 08:45:18;;;;;;;10.33;9.43;;;;;;;;;;5055777;28;20835;-49
2023/07/26 08:47:44;;;;;;;13.23;8.60;;;;;;;;;;5055459;28;20784;-51
2023/07/26 08:50:12;;;;;;;8.03;7.27;;;;;;;;;;5055108;28;20471;-48
2023/07/26 08:52:40;;;;;;;32.97;9.93;;;;;;;;;;5047700;28;20486;-50
2023/07/26 08:55:08;;;;;;;12.97;8.40;;;;;;;;;;5055419;28;20746;-50
2023/07/26 08:57:33;;;;;;;9.97;8.20;;;;;;;;;;5054495;28;20451;-50
2023/07/26 08:59:59;;;;;;;8.30;7.60;;;;;;;;;;5055039;28;20468;-49
2023/07/26 09:02:26;;;;;;;7.83;7.17;;;;;;;;;;5055001;28;20417;-49
2023/07/26 09:04:52;;;;;;;7.80;7.10;;;;;;;;;;5048309;28;20752;-49
2023/07/26 09:07:19;;;;;;;8.20;7.50;;;;;;;;;;5054704;28;20463;-50
2023/07/26 09:09:46;;;;;;;8.00;6.40;;;;;;;;;;5054827;28;20521;-50
2023/07/26 09:12:23;;;;;;;6.07;5.60;;;;;;;;;;5055101;28;20440;-48
2023/07/26 09:14:52;;;;;;;7.57;6.83;;;;;;;;;;5046198;28;20401;-51
2023/07/26 09:17:18;;;;;;;8.03;7.10;;;;;;;;;;5052366;28;20407;-51
2023/07/26 09:19:44;;;;;;;13.13;8.30;;;;;;;;;;5054714;28;20498;-51
2023/07/26 09:22:10;;;;;;;6.97;6.37;;;;;;;;;;5054652;28;20445;-51
2023/07/26 09:24:40;;;;;;;8.30;6.90;;;;;;;;;;5055227;28;20813;-50
2023/07/26 09:27:08;;;;;;;6.20;5.60;;;;;;;;;;5054849;28;20420;-51
2023/07/26 09:29:36;;;;;;;6.80;6.10;;;;;;;;;;5054593;28;21049;-49
2023/07/26 09:32:02;;;;;;;8.03;6.30;;;;;;;;;;5054668;28;20413;-49
2023/07/26 09:34:31;;;;;;;7.80;7.20;;;;;;;;;;5054314;28;20439;-49
2023/07/26 09:36:57;;;;;;;19.70;7.67;;;;;;;;;;5054550;28;20409;-49
2023/07/26 09:39:25;;;;;;;7.93;7.13;;;;;;;;;;5051524;28;20437;-50
2023/07/26 09:42:02;;;;;;;6.93;6.30;;;;;;;;;;5054252;28;20424;-49
2023/07/26 09:44:29;;;;;;;7.33;6.73;;;;;;;;;;5054455;28;20492;-50
2023/07/26 09:46:56;;;;;;;9.57;6.83;;;;;;;;;;5054438;28;20905;-50
2023/07/26 09:49:26;;;;;;;9.50;6.40;;;;;;;;;;5053789;28;20469;-50
2023/07/26 09:51:57;;;;;;;11.10;6.40;;;;;;;;;;5046655;28;20420;-49
2023/07/26 09:54:25;;;;;;;9.93;5.03;;;;;;;;;;5039196;28;20394;-50
2023/07/26 09:56:54;;;;;;;18.97;4.73;;;;;;;;;;5054371;28;20421;-50
2023/07/26 09:59:20;;;;;;;17.23;4.30;;;;;;;;;;5053990;28;20465;-50
2023/07/26 10:01:46;;;;;;;12.27;4.10;;;;;;;;;;5053840;28;20415;-50
2023/07/26 10:04:16;;;;;;;4.00;2.80;;;;;;;;;;5053692;28;20419;-51
2023/07/26 10:06:43;;;;;;;4.07;2.67;;;;;;;;;;5048209;28;20448;-50
2023/07/26 10:09:10;;;;;;;13.80;3.20;;;;;;;;;;5053829;28;20520;-50
2023/07/26 10:11:37;;;;;;;4.70;2.53;;;;;;;;;;5044996;28;20430;-49
2023/07/26 10:14:03;;;;;;;3.37;3.07;;;;;;;;;;5048495;28;20420;-51
2023/07/26 10:16:29;;;;;;;4.77;2.63;;;;;;;;;;5052376;28;20479;-51
2023/07/26 10:18:57;;;;;;;2.37;2.17;;;;;;;;;;5053805;28;20778;-50
2023/07/26 10:21:25;;;;;;;3.07;2.77;;;;;;;;;;5053304;28;20892;-51
2023/07/26 10:23:51;;;;;;;9.23;2.60;;;;;;;;;;5052793;28;20508;-49
2023/07/26 10:26:17;;;;;;;3.53;2.60;;;;;;;;;;5052448;28;20413;-49
2023/07/26 10:28:44;;;;;;;3.10;2.30;;;;;;;;;;5052387;28;20452;-49
2023/07/26 10:31:10;;;;;;;2.67;2.43;;;;;;;;;;5052058;28;20509;-50
2023/07/26 10:33:45;;;;;;;5.63;2.30;;;;;;;;;;5053501;28;20978;-50
2023/07/26 10:36:12;;;;;;;3.90;2.83;;;;;;;;;;5053447;28;20775;-51
2023/07/26 10:38:47;;;;;;;3.77;3.03;;;;;;;;;;5053532;28;20493;-50
2023/07/26 10:41:29;;;;;;;3.70;3.40;;;;;;;;;;5053383;28;20921;-47
2023/07/26 10:44:04;;;;;;;3.90;3.30;;;;;;;;;;5053424;28;20436;-51
2023/07/26 10:46:37;;;;;;;4.07;3.67;;;;;;;;;;5052564;28;20978;-51
2023/07/26 10:49:16;;;;;;;4.20;3.90;;;;;;;;;;5053169;28;20469;-50
2023/07/26 10:52:00;;;;;;;5.93;4.23;;;;;;;;;;5052065;28;20800;-50
2023/07/26 10:54:41;;;;;;;5.30;4.43;;;;;;;;;;5053207;28;20445;-48
2023/07/26 10:57:14;;;;;;;8.83;4.80;;;;;;;;;;5053723;28;20384;-51
2023/07/26 10:59:52;;;;;;;5.60;4.57;;;;;;;;;;5040984;28;20425;-49
2023/07/26 11:02:36;;;;;;;7.10;4.37;;;;;;;;;;5043623;28;20423;-51
2023/07/26 11:05:06;;;;;;;7.60;4.10;;;;;;;;;;5045051;28;20503;-51
2023/07/26 11:07:52;;;;;;;4.07;3.83;;;;;;;;;;5043584;28;20709;-51
2023/07/26 11:10:28;;;;;;;3.47;3.17;;;;;;;;;;5052652;28;20559;-49
2023/07/26 11:13:04;;;;;;;5.03;4.47;;;;;;;;;;5038484;28;20481;-49
2023/07/26 11:15:31;;;;;;;5.40;3.87;;;;;;;;;;5052580;28;20482;-49
2023/07/26 11:17:57;;;;;;;3.90;3.60;;;;;;;;;;5044804;28;20468;-50
2023/07/26 11:20:25;;;;;;;4.60;4.20;;;;;;;;;;5052461;28;20849;-51
2023/07/26 11:22:51;;;;;;;4.30;3.90;;;;;;;;;;5044909;28;20946;-50
2023/07/26 11:25:19;;;;;;;4.43;4.03;;;;;;;;;;5047974;28;20777;-51
2023/07/26 11:27:45;;;;;;;4.63;4.33;;;;;;;;;;5052594;28;20470;-49
2023/07/26 11:30:15;;;;;;;4.03;3.70;;;;;;;;;;5052134;28;20471;-50
2023/07/26 11:32:46;;;;;;;4.80;3.90;;;;;;;;;;5052545;28;20429;-49
2023/07/26 11:35:12;;;;;;;4.77;4.00;;;;;;;;;;5045662;28;20429;-49
2023/07/26 11:37:38;;;;;;;5.87;4.53;;;;;;;;;;5054182;28;20421;-48
2023/07/26 11:40:04;;;;;;;8.47;4.30;;;;;;;;;;5032278;28;20422;-49
2023/07/26 11:42:33;;;;;;;5.47;5.07;;;;;;;;;;5040720;28;20896;-50
2023/07/26 11:45:04;;;;;;;6.20;5.60;;;;;;;;;;5036693;28;20424;-50
2023/07/26 11:47:34;;;;;;;6.13;5.53;;;;;;;;;;5035814;28;20447;-51
2023/07/26 11:50:01;;;;;;;6.13;5.10;;;;;;;;;;5051507;28;20465;-50
2023/07/26 11:52:28;;;;;;;5.33;4.83;;;;;;;;;;5042736;28;20426;-48
2023/07/26 11:54:59;;;;;;;5.63;5.13;;;;;;;;;;5041959;28;20421;-49
2023/07/26 11:57:30;;;;;;;7.93;5.00;;;;;;;;;;5040816;28;20419;-48
2023/07/26 11:59:58;;;;;;;6.77;5.57;;;;;;;;;;5041123;28;20454;-50
2023/07/26 12:02:25;;;;;;;7.67;5.47;;;;;;;;;;5034626;28;20417;-49
2023/07/26 12:05:09;;;;;;;6.03;5.33;;;;;;;;;;5049865;28;20947;-51
2023/07/26 12:07:35;;;;;;;5.27;4.80;;;;;;;;;;5034051;28;20449;-50
2023/07/26 12:10:01;;;;;;;5.37;4.87;;;;;;;;;;5046112;28;20976;-51
2023/07/26 12:12:28;;;;;;;9.97;5.07;;;;;;;;;;5039864;28;20783;-50
2023/07/26 12:14:56;;;;;;;5.27;4.77;;;;;;;;;;5039694;28;20441;-50
2023/07/26 12:17:22;;;;;;;5.47;5.07;;;;;;;;;;5051354;28;20431;-51
2023/07/26 12:19:48;;;;;;;6.00;5.40;;;;;;;;;;5043858;28;20451;-50
2023/07/26 12:22:14;;;;;;;6.77;5.40;;;;;;;;;;5039888;28;20510;-49
2023/07/26 12:24:54;;;;;;;7.80;5.30;;;;;;;;;;5031554;28;20525;-50
2023/07/26 12:27:22;;;;;;;5.50;5.10;;;;;;;;;;5050467;28;20826;-49
2023/07/26 12:29:49;;;;;;;6.77;6.03;;;;;;;;;;5050154;28;20496;-51
2023/07/26 12:32:18;;;;;;;7.13;6.40;;;;;;;;;;5051678;28;20425;-50
2023/07/26 12:34:43;;;;;;;7.00;6.40;;;;;;;;;;5041351;28;20895;-49
2023/07/26 12:37:11;;;;;;;6.60;6.00;;;;;;;;;;5041801;28;20984;-49
2023/07/26 12:39:38;;;;;;;6.40;5.80;;;;;;;;;;5046076;28;20546;-49
2023/07/26 12:42:06;;;;;;;7.03;5.60;;;;;;;;;;5043000;28;20799;-50
2023/07/26 12:44:33;;;;;;;5.80;5.30;;;;;;;;;;5034709;28;20410;-47
2023/07/26 12:47:00;;;;;;;5.80;5.30;;;;;;;;;;5032435;28;20509;-50
2023/07/26 12:49:26;;;;;;;6.47;5.87;;;;;;;;;;5030976;28;20508;-50
2023/07/26 12:51:52;;;;;;;5.83;5.33;;;;;;;;;;5044554;28;20943;-49
2023/07/26 12:54:18;;;;;;;11.87;6.30;;;;;;;;;;5051322;28;20409;-48
2023/07/26 12:56:44;;;;;;;8.40;5.47;;;;;;;;;;5050133;28;20429;-50
2023/07/26 12:59:12;;;;;;;6.20;5.60;;;;;;;;;;5051319;28;20861;-50
2023/07/26 13:01:38;;;;;;;6.37;5.77;;;;;;;;;;5051148;28;20779;-49
2023/07/26 13:04:04;;;;;;;13.43;7.20;;;;;;;;;;5051334;28;20408;-50
2023/07/26 13:06:30;;;;;;;14.20;6.97;;;;;;;;;;5050327;28;20436;-49
2023/07/26 13:08:56;;;;;;;8.10;7.30;;;;;;;;;;5050712;28;20844;-48
2023/07/26 13:11:23;;;;;;;9.40;7.80;;;;;;;;;;5050771;28;20411;-48
2023/07/26 13:13:49;;;;;;;9.43;8.03;;;;;;;;;;5042007;28;20774;-51
2023/07/26 13:16:15;;;;;;;7.63;6.50;;;;;;;;;;5048058;28;20934;-50
2023/07/26 13:18:41;;;;;;;11.37;7.50;;;;;;;;;;5051173;28;20952;-49
2023/07/26 13:21:07;;;;;;;11.10;7.77;;;;;;;;;;5051023;28;20919;-51
2023/07/26 13:23:33;;;;;;;13.70;8.20;;;;;;;;;;5051299;28;21002;-51
2023/07/26 13:25:58;;;;;;;8.87;7.03;;;;;;;;;;5046640;28;21008;-50
2023/07/26 13:28:24;;;;;;;8.50;7.53;;;;;;;;;;5054713;28;20784;-51
2023/07/26 13:30:50;;;;;;;9.00;7.77;;;;;;;;;;5054459;28;20934;-49
2023/07/26 13:33:16;;;;;;;10.23;8.03;;;;;;;;;;5054971;28;20422;-50
2023/07/26 13:35:42;;;;;;;9.30;8.37;;;;;;;;;;5049485;28;20427;-49
2023/07/26 13:38:08;;;;;;;8.70;7.80;;;;;;;;;;5054504;28;20431;-48
2023/07/26 13:40:34;;;;;;;11.70;8.07;;;;;;;;;;5054185;28;20422;-51
2023/07/26 13:43:00;;;;;;;11.57;8.77;;;;;;;;;;5048155;28;20399;-50
2023/07/26 13:45:26;;;;;;;10.40;6.97;;;;;;;;;;5050026;28;20432;-50
2023/07/26 13:47:52;;;;;;;10.10;7.43;;;;;;;;;;5054394;28;20416;-50
2023/07/26 13:50:18;;;;;;;9.40;7.63;;;;;;;;;;5052890;28;20920;-51
2023/07/26 13:52:44;;;;;;;9.80;8.80;;;;;;;;;;5046913;28;20528;-49
2023/07/26 13:55:10;;;;;;;12.90;8.90;;;;;;;;;;5049113;28;20423;-50
2023/07/26 13:57:36;;;;;;;11.30;9.70;;;;;;;;;;5044457;28;20435;-48
2023/07/26 14:00:03;;;;;;;9.80;8.67;;;;;;;;;;5047862;28;20569;-49
2023/07/26 14:02:30;;;;;;;9.77;8.80;;;;;;;;;;5046062;28;20416;-50
2023/07/26 14:04:56;;;;;;;11.73;8.50;;;;;;;;;;5053092;28;20420;-50
2023/07/26 14:07:24;;;;;;;9.60;7.27;;;;;;;;;;5054047;28;20952;-50
2023/07/26 14:09:51;;;;;;;8.77;7.70;;;;;;;;;;5053676;28;20602;-50
2023/07/26 14:12:19;;;;;;;8.43;7.50;;;;;;;;;;5054049;28;20418;-49
2023/07/26 14:14:45;;;;;;;10.33;9.20;;;;;;;;;;5054003;28;20405;-51
2023/07/26 14:17:11;;;;;;;11.10;10.00;;;;;;;;;;5053460;28;20400;-51
2023/07/26 14:19:37;;;;;;;12.87;9.27;;;;;;;;;;5051842;28;20425;-47
2023/07/26 14:22:03;;;;;;;12.63;8.37;;;;;;;;;;5048884;28;20784;-49
2023/07/26 14:24:29;;;;;;;8.50;7.60;;;;;;;;;;5053569;28;20420;-50
2023/07/26 14:26:55;;;;;;;9.83;8.93;;;;;;;;;;5053735;28;20488;-48
2023/07/26 14:29:21;;;;;;;11.07;7.70;;;;;;;;;;5053621;28;20564;-49
2023/07/26 14:31:49;;;;;;;8.97;7.40;;;;;;;;;;5052936;28;20750;-49
2023/07/26 14:34:15;;;;;;;10.30;8.57;;;;;;;;;;5053494;28;20395;-49
2023/07/26 14:36:42;;;;;;;8.53;7.70;;;;;;;;;;5053752;28;20723;-46
2023/07/26 14:39:08;;;;;;;10.13;7.87;;;;;;;;;;5048141;28;20956;-45